createdAt,value
2018-06-08T00:03:17.735Z,20.50
2018-06-08T00:08:19.914Z,20.50
2018-06-08T00:13:22.042Z,20.40
2018-06-08T00:18:24.182Z,20.50
2018-06-08T00:23:26.315Z,20.50
2018-06-08T00:28:28.478Z,20.50
2018-06-08T00:33:30.644Z,20.30
2018-06-08T00:38:32.814Z,20.10
2018-06-08T00:43:34.973Z,20.00
2018-06-08T00:48:37.142Z,19.90
2018-06-08T00:53:39.325Z,20.00
2018-06-08T00:58:41.466Z,20.20
2018-06-08T01:03:43.638Z,20.20
2018-06-08T01:08:45.798Z,20.10
2018-06-08T01:13:47.945Z,20.30
2018-06-08T01:18:50.102Z,20.30
2018-06-08T01:23:52.277Z,20.30
2018-06-08T01:28:54.430Z,20.10
2018-06-08T01:33:56.564Z,19.90
2018-06-08T01:38:58.709Z,19.70
2018-06-08T01:44:00.842Z,19.80
2018-06-08T01:49:03.458Z,19.80
2018-06-08T01:54:05.605Z,19.70
2018-06-08T01:59:07.728Z,19.90
2018-06-08T02:04:09.893Z,19.90
2018-06-08T02:09:12.022Z,20.10
2018-06-08T02:14:14.162Z,20.20
2018-06-08T02:19:16.335Z,20.00
2018-06-08T02:24:18.471Z,20.00
2018-06-08T02:29:20.622Z,20.00
2018-06-08T02:34:22.778Z,19.80
2018-06-08T02:39:24.937Z,19.80
2018-06-08T02:44:27.066Z,19.80
2018-06-08T02:49:29.191Z,19.90
2018-06-08T02:54:31.334Z,20.10
2018-06-08T02:59:33.453Z,20.10
2018-06-08T03:04:35.587Z,20.00
2018-06-08T03:09:37.730Z,20.00
2018-06-08T03:14:39.869Z,19.90
2018-06-08T03:19:42.026Z,19.90
2018-06-08T03:24:44.163Z,19.90
2018-06-08T03:29:46.298Z,19.80
2018-06-08T03:34:48.463Z,19.80
2018-06-08T03:39:50.600Z,19.80
2018-06-08T03:44:52.764Z,19.70
2018-06-08T03:49:54.929Z,19.80
2018-06-08T03:54:57.083Z,19.70
2018-06-08T03:59:59.251Z,19.70
2018-06-08T04:05:01.411Z,19.70
2018-06-08T04:10:03.637Z,19.60
2018-06-08T04:15:05.816Z,19.60
2018-06-08T04:20:07.985Z,19.60
2018-06-08T04:25:10.162Z,19.90
2018-06-08T04:30:12.334Z,19.90
2018-06-08T04:35:14.453Z,20.00
2018-06-08T04:40:16.586Z,20.00
2018-06-08T04:45:18.719Z,20.20
2018-06-08T04:50:20.838Z,20.40
2018-06-08T04:55:23.742Z,20.60
2018-06-08T05:00:25.878Z,20.80
2018-06-08T05:05:28.010Z,21.10
2018-06-08T05:10:30.154Z,21.30
2018-06-08T05:15:32.411Z,21.70
2018-06-08T05:20:34.586Z,22.10
2018-06-08T05:25:36.717Z,22.30
2018-06-08T05:30:38.890Z,22.40
2018-06-08T05:35:41.045Z,22.20
2018-06-08T05:40:43.232Z,21.90
2018-06-08T05:45:45.397Z,21.30
2018-06-08T05:50:47.574Z,21.40
2018-06-08T05:55:49.722Z,21.60
2018-06-08T06:00:51.934Z,21.90
2018-06-08T06:05:54.109Z,21.90
2018-06-08T06:10:56.261Z,22.30
2018-06-08T06:15:58.416Z,22.80
2018-06-08T06:21:00.581Z,22.50
2018-06-08T06:26:02.778Z,22.60
2018-06-08T06:31:04.954Z,23.20
2018-06-08T06:36:07.130Z,22.90
2018-06-08T06:41:09.287Z,23.70
2018-06-08T06:46:11.498Z,24.40
2018-06-08T06:51:13.673Z,24.80
2018-06-08T06:56:15.842Z,24.50
2018-06-08T07:01:18.018Z,24.60
2018-06-08T07:06:20.194Z,24.40
2018-06-08T07:11:23.761Z,24.50
2018-06-08T07:16:25.934Z,24.20
2018-06-08T07:21:28.082Z,24.30
2018-06-08T07:26:30.223Z,25.20
2018-06-08T07:31:32.423Z,25.50
2018-06-08T07:36:34.533Z,25.90
2018-06-08T07:41:36.682Z,25.90
2018-06-08T07:46:38.832Z,25.50
2018-06-08T07:51:40.962Z,26.20
2018-06-08T07:56:43.106Z,25.90
2018-06-08T08:01:45.245Z,25.90
2018-06-08T08:06:47.399Z,25.40
2018-06-08T08:11:49.559Z,25.20
2018-06-08T08:16:51.698Z,24.90
2018-06-08T08:21:53.833Z,24.70
2018-06-08T08:26:55.970Z,24.60
2018-06-08T08:31:58.200Z,25.10
2018-06-08T08:37:00.366Z,25.90
2018-06-08T08:42:02.541Z,26.00
2018-06-08T08:47:04.729Z,26.10
2018-06-08T08:52:06.938Z,25.60
2018-06-08T08:57:09.139Z,25.40
2018-06-08T09:02:11.265Z,25.60
2018-06-08T09:07:13.458Z,25.70
2018-06-08T09:12:15.628Z,26.30
2018-06-08T09:17:17.781Z,27.30
2018-06-08T09:22:19.942Z,27.10
2018-06-08T09:27:22.116Z,26.50
2018-06-08T09:32:24.238Z,26.10
2018-06-08T09:37:26.368Z,26.10
2018-06-08T09:42:28.506Z,25.90
2018-06-08T09:47:30.794Z,25.70
2018-06-08T09:52:32.942Z,25.80
2018-06-08T09:57:35.071Z,25.90
2018-06-08T10:02:38.686Z,26.70
2018-06-08T10:07:40.834Z,27.00
2018-06-08T10:12:42.978Z,28.30
2018-06-08T10:17:45.133Z,28.10
2018-06-08T10:22:47.269Z,28.70
2018-06-08T10:27:49.416Z,28.00
2018-06-08T10:32:51.541Z,27.70
2018-06-08T10:37:53.686Z,27.70
2018-06-08T10:42:55.837Z,27.90
2018-06-08T10:47:57.990Z,27.40
2018-06-08T10:53:00.123Z,27.90
2018-06-08T10:58:02.250Z,27.70
2018-06-08T11:03:04.470Z,27.90
2018-06-08T11:08:06.605Z,27.90
2018-06-08T11:13:08.772Z,28.30
2018-06-08T11:18:10.911Z,28.40
2018-06-08T11:23:13.050Z,27.90
2018-06-08T11:28:15.213Z,28.80
2018-06-08T11:33:17.368Z,29.10
2018-06-08T11:38:19.506Z,29.30
2018-06-08T11:43:21.690Z,29.20
2018-06-08T11:48:23.845Z,28.60
2018-06-08T11:53:26.009Z,29.30
2018-06-08T11:58:28.133Z,28.50
2018-06-08T12:03:30.278Z,28.60
2018-06-08T12:08:32.415Z,28.70
2018-06-08T12:13:34.562Z,28.60
2018-06-08T12:18:36.689Z,28.10
2018-06-08T12:23:38.825Z,28.60
2018-06-08T12:28:40.948Z,28.20
2018-06-08T12:33:43.148Z,29.00
2018-06-08T12:38:45.301Z,28.50
2018-06-08T12:43:47.480Z,28.80
2018-06-08T12:48:49.664Z,28.70
2018-06-08T12:53:51.829Z,29.00
2018-06-08T12:58:54.122Z,29.20
2018-06-08T13:03:56.342Z,29.30
2018-06-08T13:08:58.499Z,28.70
2018-06-08T13:14:00.665Z,28.30
2018-06-08T13:19:02.818Z,28.30
2018-06-08T13:24:05.101Z,28.30
2018-06-08T13:29:07.273Z,28.30
2018-06-08T13:34:09.389Z,28.40
2018-06-08T13:39:11.514Z,28.50
2018-06-08T13:44:13.650Z,28.50
2018-06-08T13:49:15.803Z,28.90
2018-06-08T13:54:17.945Z,28.90
2018-06-08T13:59:20.079Z,29.20
2018-06-08T14:04:22.202Z,29.20
2018-06-08T14:09:24.331Z,29.30
2018-06-08T14:14:26.474Z,29.90
2018-06-08T14:19:29.104Z,30.30
2018-06-08T14:24:31.230Z,30.20
2018-06-08T14:29:33.396Z,30.10
2018-06-08T14:34:35.565Z,30.30
2018-06-08T14:39:37.730Z,30.10
2018-06-08T14:44:39.902Z,30.30
2018-06-08T14:49:42.061Z,30.10
2018-06-08T14:54:44.256Z,30.00
2018-06-08T14:59:46.412Z,29.90
2018-06-08T15:04:48.577Z,29.80
2018-06-08T15:09:50.826Z,29.60
2018-06-08T15:14:53.325Z,28.90
2018-06-08T15:19:55.551Z,28.80
2018-06-08T15:24:57.719Z,28.90
2018-06-08T15:29:59.888Z,28.60
2018-06-08T15:35:02.090Z,28.40
2018-06-08T15:40:04.270Z,28.20
2018-06-08T15:45:06.449Z,28.10
2018-06-08T15:50:08.567Z,28.10
2018-06-08T15:55:10.704Z,28.30
2018-06-08T16:00:12.832Z,28.30
2018-06-08T16:05:14.986Z,28.30
2018-06-08T16:10:17.145Z,28.20
2018-06-08T16:15:19.286Z,28.00
2018-06-08T16:20:21.810Z,27.90
2018-06-08T16:25:23.964Z,27.80
2018-06-08T16:30:26.162Z,27.70
2018-06-08T16:35:28.296Z,27.40
2018-06-08T16:40:30.479Z,27.10
2018-06-08T16:45:32.629Z,27.10
2018-06-08T16:50:34.766Z,26.90
2018-06-08T16:55:36.944Z,26.60
2018-06-08T17:00:42.944Z,26.50
2018-06-08T17:05:45.067Z,26.20
2018-06-08T17:10:47.205Z,26.00
2018-06-08T17:15:49.346Z,26.30
2018-06-08T17:20:51.473Z,26.40
2018-06-08T17:25:53.638Z,26.50
2018-06-08T17:30:55.809Z,26.10
2018-06-08T17:35:58.020Z,26.00
2018-06-08T17:41:00.134Z,26.10
2018-06-08T17:46:02.341Z,26.20
2018-06-08T17:51:04.695Z,26.10
2018-06-08T17:56:06.868Z,26.30
2018-06-08T18:01:09.047Z,26.30
2018-06-08T18:06:11.233Z,26.40
2018-06-08T18:11:13.415Z,26.50
2018-06-08T18:16:15.600Z,26.30
2018-06-08T18:21:17.786Z,26.40
2018-06-08T18:26:19.954Z,26.00
2018-06-08T18:31:22.122Z,25.80
2018-06-08T18:36:24.305Z,25.50
2018-06-08T18:41:26.513Z,25.60
2018-06-08T18:46:28.923Z,25.60
2018-06-08T18:51:31.137Z,25.50
2018-06-08T18:56:33.315Z,25.40
2018-06-08T19:01:35.486Z,25.10
2018-06-08T19:06:37.657Z,25.20
2018-06-08T19:11:39.814Z,25.20
2018-06-08T19:16:42.018Z,25.30
2018-06-08T19:21:44.210Z,25.00
2018-06-08T19:26:46.397Z,25.00
2018-06-08T19:31:48.691Z,25.00
2018-06-08T19:36:50.866Z,25.00
2018-06-08T19:41:53.024Z,25.10
2018-06-08T19:46:55.193Z,24.90
2018-06-08T19:51:57.420Z,24.90
2018-06-08T19:56:59.569Z,24.80
2018-06-08T20:02:01.739Z,24.20
2018-06-08T20:07:05.289Z,24.20
2018-06-08T20:12:07.457Z,24.30
2018-06-08T20:22:12.008Z,23.80
2018-06-08T20:27:14.211Z,24.10
2018-06-08T20:32:16.358Z,23.80
2018-06-08T20:37:18.520Z,23.80
2018-06-08T20:42:20.682Z,23.80
2018-06-08T20:47:22.854Z,23.60
2018-06-08T20:52:24.996Z,23.40
2018-06-08T20:57:27.942Z,23.10
2018-06-08T21:02:30.161Z,23.00
2018-06-08T21:07:32.634Z,23.00
2018-06-08T21:12:34.814Z,23.20
2018-06-08T21:17:36.975Z,23.30
2018-06-08T21:22:39.157Z,23.20
2018-06-08T21:27:41.285Z,23.30
2018-06-08T21:32:43.469Z,23.20
2018-06-08T21:37:45.614Z,23.10
2018-06-08T21:42:47.766Z,22.90
2018-06-08T21:47:49.929Z,22.70
2018-06-08T21:52:52.069Z,22.90
2018-06-08T21:57:54.227Z,22.80
2018-06-08T22:02:56.370Z,22.50
2018-06-08T22:07:58.520Z,22.50
2018-06-08T22:13:00.683Z,22.40
2018-06-08T22:18:02.826Z,22.50
2018-06-08T22:23:04.962Z,22.50
2018-06-08T22:28:07.130Z,22.50
2018-06-08T22:33:09.314Z,22.40
2018-06-08T22:38:11.482Z,22.50
2018-06-08T22:43:13.641Z,22.20
2018-06-08T22:48:15.829Z,22.10
2018-06-08T22:53:18.022Z,21.90
2018-06-08T22:58:20.181Z,21.80
2018-06-08T23:03:22.386Z,21.60
2018-06-08T23:08:24.564Z,21.90
2018-06-08T23:13:26.750Z,21.70
2018-06-08T23:18:28.926Z,21.20
2018-06-08T23:23:31.121Z,21.10
2018-06-08T23:28:33.315Z,21.30
2018-06-08T23:33:35.465Z,21.10
2018-06-08T23:38:37.631Z,21.30
2018-06-08T23:43:39.774Z,21.50
2018-06-08T23:48:41.939Z,21.50
2018-06-08T23:53:44.078Z,21.40
2018-06-08T23:58:46.207Z,21.40
